Taunton 2W

41° 53' 56"N, 71° 08' 19"W, Elevation 50 ft.
Eastern Time

Hourly observations for the last 72 hours

Date Time Temperature (°F) Humi-
dity

(%)
Wind
(mph)
Pressure Rain (in) Sun
(W/m2)
UV ET
(in)
Air Dew 6 Hour 1 Hr 3 Hr 6 Hr Day
Alt
(in)
Sea
Level

(mb)
Max Min
18 10:00 37.1 25.7 63 SSE 3 G 4 29.93 1013.5 0.00 218 0.9 0.005
18 09:00 33.2 25.2 72 SE 3 G 4 29.94 1014.0 0.00 250 0.6 0.002
18 08:00 26.4 23.6 89 Calm 29.97 1014.9 0.00 237 0.0 0.001
18 07:00 20.4 18.2 29.0 20.4 91 Calm 29.97 1015.0 0.00 14 0.0 0.001
18 06:00 21.6 19.4 91 Calm 29.97 1014.8 0.00 0 0.0 0.001
18 05:00 22.6 19.6 88 W 2 G 3 29.97 1015.0 0.00 0 0.0 0.001
18 04:00 22.3 19.6 89 W 1 G 2 29.95 1014.4 0.00 0 0.0 0.001
18 03:00 23.0 20.0 88 W 1 G 2 29.98 1015.1 0.00 0 0.0 0.001
18 02:00 26.3 20.1 77 W 0 G 3 29.99 1015.6 0.00 0 0.0 0.000
18 01:00 28.2 21.3 35.2 23.3 75 WSW 1 G 6 29.99 1015.6 0.00 0 0.0 0.000
18 00:00 23.4 20.6 89 W 0 G 3 29.97 1015.0 0.01 0 0.0 0.086
17 23:00 25.0 22.0 88 W 1 G 1 29.98 1015.3 0.01 0 0.0 0.086
17 22:00 26.4 22.5 85 W 0 G 2 29.97 1014.8 0.01 0 0.0 0.086
17 21:00 30.5 21.9 70 W 2 G 5 29.98 1015.4 0.01 0 0.0 0.085
17 20:00 33.7 22.4 63 W 3 G 8 29.99 1015.5 0.01 0 0.0 0.084
17 19:00 34.9 23.2 46.2 32.5 62 W 4 G 8 29.97 1015.0 0.01 0 0.0 0.083
17 18:00 36.0 22.2 57 WNW 3 G 7 29.96 1014.6 0.01 0 0.0 0.082
17 17:00 39.0 21.9 50 NW 6 G 9 29.94 1014.0 0.01 0 0.0 0.080
17 16:00 42.7 20.6 41 WNW 7 G 19 29.91 1013.0 0.01 16 0.0 0.075
17 15:00 45.3 24.1 43 WNW 14 G 21 29.89 1012.1 0.01 179 0.0 0.067
17 14:00 45.5 26.4 47 NNW 12 G 19 29.87 1011.5 0.01 325 0.6 0.057
17 13:00 44.9 27.4 45.5 37.9 50 NW 12 G 23 29.87 1011.4 0.01 0.01 436 1.2 0.046
17 12:00 43.4 28.3 55 NNW 12 G 29 29.87 1011.6 0.01 492 1.4 0.034
17 11:00 42.7 28.5 57 NW 18 G 31 29.88 1011.9 0.01 497 1.4 0.023
17 10:00 42.0 29.5 61 NW 8 G 28 29.89 1012.1 0.01 0.01 485 1.1 0.015
17 09:00 40.2 29.4 65 NW 17 G 26 29.88 1011.7 0.01 0.01 121 0.6 0.009
17 08:00 39.9 30.9 70 NW 9 G 22 29.84 1010.7 0.00 216 0.0 0.006
17 07:00 38.1 31.2 39.5 38.0 76 WNW 9 G 19 29.82 1009.8 0.00 16 0.0 0.005
17 06:00 38.2 32.0 78 WNW 6 G 12 29.79 1008.7 0.00 0 0.0 0.004
17 05:00 38.5 32.2 78 W 4 G 10 29.76 1007.8 0.00 0 0.0 0.003
17 04:00 39.3 33.7 80 W 7 G 14 29.73 1006.9 0.00 0 0.0 0.002
17 03:00 38.6 33.9 83 WNW 7 G 11 29.73 1006.6 0.00 0 0.0 0.001
17 02:00 38.8 34.7 85 WNW 3 G 9 29.72 1006.3 0.00 0 0.0 0.000
17 01:00 39.4 36.1 43.1 39.0 88 W 4 G 9 29.70 1005.7 0.00 0 0.0 0.000
17 00:00 40.3 37.6 90 W 5 G 10 29.70 1005.8 0.38 0 0.0 0.021
16 23:00 40.4 38.5 93 W 4 G 10 29.69 1005.6 0.38 0 0.0 0.021
16 22:00 40.7 39.4 95 WSW 4 G 11 29.70 1005.9 0.38 0 0.0 0.021
16 21:00 41.0 39.9 96 WSW 4 G 7 29.71 1006.3 0.38 0 0.0 0.021
16 20:00 39.1 38.1 96 NW 0 G 3 29.70 1006.0 0.38 0 0.0 0.021
16 19:00 43.1 41.8 50.2 43.1 95 NW 2 G 7 29.69 1005.6 0.02 0.02 0.33 0.38 0 0.0 0.021
16 18:00 45.3 44.5 97 SW 2 G 4 29.69 1005.4 0.36 0 0.0 0.021
16 17:00 44.1 43.0 96 NW 0 G 3 29.67 1004.7 0.36 0 0.0 0.021
16 16:00 49.5 48.4 96 NW 0 G 3 29.67 1004.8 0.02 0.31 0.36 49 0.0 0.020
16 15:00 50.1 49.0 96 SW 2 G 3 29.69 1005.3 0.06 0.34 23 0.0 0.019
16 14:00 50.1 48.7 95 SSW 2 G 5 29.70 1005.8 0.23 0.28 79 0.0 0.018
16 13:00 48.4 46.5 52.6 38.4 93 ESE 3 G 16 29.70 1005.9 0.03 0.04 0.05 0.05 19 0.0 0.016
16 12:00 49.7 46.9 90 ESE 6 G 12 29.75 1007.4 0.01 0.02 104 0.6 0.013
16 11:00 51.0 44.7 79 SSE 10 G 19 29.81 1009.7 0.01 232 1.1 0.008
16 10:00 51.7 44.0 75 ESE 12 G 20 29.87 1011.5 0.01 0.01 251 1.1 0.001
16 09:00 46.5 42.8 87 ESE 10 G 14 29.90 1012.7 0.01 125 0.5 0.000
16 08:00 43.4 40.4 89 ESE 4 G 10 29.93 1013.4 0.01 0.01 21 0.0 0.000
16 07:00 38.4 37.4 38.4 30.7 96 E 4 G 7 29.92 1013.4 0.00 14 0.0 0.000
16 06:00 34.5 33.5 96 Calm 29.97 1014.8 0.00 0 0.0 0.000
16 05:00 33.3 32.3 96 Calm 30.00 1016.0 0.00 0 0.0 0.000
16 04:00 32.9 31.9 96 Calm 30.02 1016.8 0.00 0 0.0 0.000
16 03:00 32.8 31.5 95 Calm 30.03 1016.9 0.00 0 0.0 0.000
16 02:00 32.3 31.0 95 ENE 1 G 2 30.07 1018.4 0.00 0 0.0 0.000
16 01:00 30.7 29.2 30.7 26.1 94 Calm 30.10 1019.2 0.00 0 0.0 0.000
16 00:00 28.1 26.6 94 Calm 30.11 1019.8 0.00 0 0.0 0.054
15 23:00 26.2 24.7 94 Calm 30.12 1019.9 0.00 0 0.0 0.054
15 22:00 27.0 25.2 93 Calm 30.14 1020.6 0.00 0 0.0 0.054
15 21:00 27.6 25.8 93 Calm 30.17 1021.9 0.00 0 0.0 0.054
15 20:00 28.5 26.5 92 Calm 30.18 1022.1 0.00 0 0.0 0.054
15 19:00 30.0 27.4 44.9 30.0 90 Calm 30.19 1022.3 0.00 0 0.0 0.054
15 18:00 34.7 29.8 82 ENE 0 G 1 30.20 1022.6 0.00 0 0.0 0.053
15 17:00 38.5 30.9 74 E 0 G 3 30.20 1022.6 0.00 0 0.0 0.053
15 16:00 41.3 31.5 68 ENE 4 G 8 30.19 1022.5 0.00 19 0.0 0.051
15 15:00 43.8 32.4 64 NE 3 G 11 30.19 1022.4 0.00 83 0.0 0.047
15 14:00 44.6 32.4 62 N 5 G 10 30.21 1023.0 0.00 149 0.5 0.043
15 13:00 44.7 32.5 47.6 28.4 62 N 5 G 11 30.21 1023.1 0.00 181 0.8 0.036
15 12:00 45.9 32.4 59 E 7 G 10 30.23 1023.6 0.00 585 1.9 0.026
15 11:00 46.5 34.6 63 N 5 G 13 30.26 1024.8 0.00 599 1.8 0.016

Data generated by WxSolution Version 1.9.1.0, Build 2017.11.15.